sensor_id;sensor_type;location;lat;lon;timestamp;P1;durP1;ratioP1;P2;durP2;ratioP2
11230;SDS011;5672;51.060;3.734;2022-08-30T00:00:48;12.23;;;5.80;;
11230;SDS011;5672;51.060;3.734;2022-08-30T00:03:33;15.37;;;5.43;;
11230;SDS011;5672;51.060;3.734;2022-08-30T00:06:00;10.03;;;5.60;;
11230;SDS011;5672;51.060;3.734;2022-08-30T00:08:27;8.77;;;5.50;;
11230;SDS011;5672;51.060;3.734;2022-08-30T00:10:53;11.13;;;5.90;;
11230;SDS011;5672;51.060;3.734;2022-08-30T00:13:19;10.87;;;5.97;;
11230;SDS011;5672;51.060;3.734;2022-08-30T00:15:45;10.93;;;5.70;;
11230;SDS011;5672;51.060;3.734;2022-08-30T00:18:12;11.73;;;6.07;;
11230;SDS011;5672;51.060;3.734;2022-08-30T00:20:39;12.80;;;6.20;;
11230;SDS011;5672;51.060;3.734;2022-08-30T00:23:06;10.53;;;5.40;;
11230;SDS011;5672;51.060;3.734;2022-08-30T00:25:32;10.77;;;6.20;;
11230;SDS011;5672;51.060;3.734;2022-08-30T00:27:58;9.07;;;5.40;;
11230;SDS011;5672;51.060;3.734;2022-08-30T00:30:24;8.97;;;5.10;;
11230;SDS011;5672;51.060;3.734;2022-08-30T00:32:51;11.50;;;4.90;;
11230;SDS011;5672;51.060;3.734;2022-08-30T00:35:18;8.97;;;4.77;;
11230;SDS011;5672;51.060;3.734;2022-08-30T00:37:44;12.43;;;5.30;;
11230;SDS011;5672;51.060;3.734;2022-08-30T00:40:11;10.10;;;5.20;;
11230;SDS011;5672;51.060;3.734;2022-08-30T00:42:40;11.23;;;5.70;;
11230;SDS011;5672;51.060;3.734;2022-08-30T00:45:13;11.90;;;5.60;;
11230;SDS011;5672;51.060;3.734;2022-08-30T00:47:40;9.47;;;5.80;;
11230;SDS011;5672;51.060;3.734;2022-08-30T00:50:06;6.60;;;5.43;;
11230;SDS011;5672;51.060;3.734;2022-08-30T00:52:34;11.87;;;5.67;;
11230;SDS011;5672;51.060;3.734;2022-08-30T00:55:01;12.40;;;5.57;;
11230;SDS011;5672;51.060;3.734;2022-08-30T00:57:28;6.93;;;5.53;;
11230;SDS011;5672;51.060;3.734;2022-08-30T00:59:55;7.37;;;5.57;;
11230;SDS011;5672;51.060;3.734;2022-08-30T01:02:21;13.47;;;6.10;;
11230;SDS011;5672;51.060;3.734;2022-08-30T01:04:48;10.77;;;5.60;;
11230;SDS011;5672;51.060;3.734;2022-08-30T01:07:15;10.67;;;6.03;;
11230;SDS011;5672;51.060;3.734;2022-08-30T01:09:41;10.83;;;5.70;;
11230;SDS011;5672;51.060;3.734;2022-08-30T01:12:07;7.43;;;5.07;;
11230;SDS011;5672;51.060;3.734;2022-08-30T01:14:34;9.60;;;5.50;;
11230;SDS011;5672;51.060;3.734;2022-08-30T01:17:00;7.93;;;4.83;;
11230;SDS011;5672;51.060;3.734;2022-08-30T01:19:30;10.43;;;6.03;;
11230;SDS011;5672;51.060;3.734;2022-08-30T01:22:03;9.93;;;5.37;;
11230;SDS011;5672;51.060;3.734;2022-08-30T01:24:30;8.10;;;5.20;;
11230;SDS011;5672;51.060;3.734;2022-08-30T01:26:57;10.63;;;5.33;;
11230;SDS011;5672;51.060;3.734;2022-08-30T01:29:23;10.43;;;6.20;;
11230;SDS011;5672;51.060;3.734;2022-08-30T01:31:50;5.70;;;5.10;;
11230;SDS011;5672;51.060;3.734;2022-08-30T01:34:16;8.00;;;4.80;;
11230;SDS011;5672;51.060;3.734;2022-08-30T01:36:43;11.43;;;5.67;;
11230;SDS011;5672;51.060;3.734;2022-08-30T01:39:10;7.70;;;5.33;;
11230;SDS011;5672;51.060;3.734;2022-08-30T01:41:36;10.57;;;5.60;;
11230;SDS011;5672;51.060;3.734;2022-08-30T01:44:04;9.37;;;5.23;;
11230;SDS011;5672;51.060;3.734;2022-08-30T01:46:32;7.63;;;4.93;;
11230;SDS011;5672;51.060;3.734;2022-08-30T01:49:02;8.07;;;5.70;;
11230;SDS011;5672;51.060;3.734;2022-08-30T01:51:29;11.77;;;5.60;;
11230;SDS011;5672;51.060;3.734;2022-08-30T01:53:55;9.50;;;5.40;;
11230;SDS011;5672;51.060;3.734;2022-08-30T01:56:22;6.70;;;4.97;;
11230;SDS011;5672;51.060;3.734;2022-08-30T01:58:48;6.23;;;5.07;;
11230;SDS011;5672;51.060;3.734;2022-08-30T02:01:15;7.40;;;5.53;;
11230;SDS011;5672;51.060;3.734;2022-08-30T02:03:42;9.00;;;5.37;;
11230;SDS011;5672;51.060;3.734;2022-08-30T02:06:10;8.87;;;5.73;;
11230;SDS011;5672;51.060;3.734;2022-08-30T02:08:37;8.47;;;5.67;;
11230;SDS011;5672;51.060;3.734;2022-08-30T02:11:04;7.67;;;5.80;;
11230;SDS011;5672;51.060;3.734;2022-08-30T02:13:31;8.30;;;5.57;;
11230;SDS011;5672;51.060;3.734;2022-08-30T02:15:57;10.90;;;5.60;;
11230;SDS011;5672;51.060;3.734;2022-08-30T02:18:24;10.77;;;5.83;;
11230;SDS011;5672;51.060;3.734;2022-08-30T02:20:51;9.67;;;5.60;;
11230;SDS011;5672;51.060;3.734;2022-08-30T02:23:17;6.90;;;5.23;;
11230;SDS011;5672;51.060;3.734;2022-08-30T02:25:44;7.60;;;5.23;;
11230;SDS011;5672;51.060;3.734;2022-08-30T02:28:10;7.73;;;5.63;;
11230;SDS011;5672;51.060;3.734;2022-08-30T02:30:37;10.37;;;5.83;;
11230;SDS011;5672;51.060;3.734;2022-08-30T02:33:03;6.73;;;5.13;;
11230;SDS011;5672;51.060;3.734;2022-08-30T02:35:29;8.97;;;5.83;;
11230;SDS011;5672;51.060;3.734;2022-08-30T02:37:55;8.70;;;5.63;;
11230;SDS011;5672;51.060;3.734;2022-08-30T02:40:21;10.67;;;5.70;;
11230;SDS011;5672;51.060;3.734;2022-08-30T02:42:48;9.83;;;6.27;;
11230;SDS011;5672;51.060;3.734;2022-08-30T02:45:14;7.80;;;5.57;;
11230;SDS011;5672;51.060;3.734;2022-08-30T02:47:41;7.13;;;5.87;;
11230;SDS011;5672;51.060;3.734;2022-08-30T02:50:07;8.93;;;6.30;;
11230;SDS011;5672;51.060;3.734;2022-08-30T02:52:34;9.37;;;6.00;;
11230;SDS011;5672;51.060;3.734;2022-08-30T02:55:01;9.67;;;6.13;;
11230;SDS011;5672;51.060;3.734;2022-08-30T02:57:27;11.03;;;6.30;;
11230;SDS011;5672;51.060;3.734;2022-08-30T02:59:53;7.50;;;6.33;;
11230;SDS011;5672;51.060;3.734;2022-08-30T03:02:19;10.97;;;6.80;;
11230;SDS011;5672;51.060;3.734;2022-08-30T03:04:46;15.50;;;6.97;;
11230;SDS011;5672;51.060;3.734;2022-08-30T03:07:13;10.40;;;7.10;;
11230;SDS011;5672;51.060;3.734;2022-08-30T03:09:40;11.50;;;6.23;;
11230;SDS011;5672;51.060;3.734;2022-08-30T03:12:07;8.30;;;6.30;;
11230;SDS011;5672;51.060;3.734;2022-08-30T03:14:34;7.33;;;6.00;;
11230;SDS011;5672;51.060;3.734;2022-08-30T03:17:01;8.33;;;6.00;;
11230;SDS011;5672;51.060;3.734;2022-08-30T03:19:27;10.27;;;6.40;;
11230;SDS011;5672;51.060;3.734;2022-08-30T03:21:53;12.23;;;6.63;;
11230;SDS011;5672;51.060;3.734;2022-08-30T03:24:19;11.30;;;6.30;;
11230;SDS011;5672;51.060;3.734;2022-08-30T03:26:45;9.07;;;7.20;;
11230;SDS011;5672;51.060;3.734;2022-08-30T03:29:11;8.80;;;6.30;;
11230;SDS011;5672;51.060;3.734;2022-08-30T03:31:37;12.00;;;6.43;;
11230;SDS011;5672;51.060;3.734;2022-08-30T03:34:03;8.60;;;6.17;;
11230;SDS011;5672;51.060;3.734;2022-08-30T03:36:29;10.47;;;6.90;;
11230;SDS011;5672;51.060;3.734;2022-08-30T03:38:56;8.70;;;6.40;;
11230;SDS011;5672;51.060;3.734;2022-08-30T03:41:22;9.37;;;6.50;;
11230;SDS011;5672;51.060;3.734;2022-08-30T03:43:48;9.53;;;6.50;;
11230;SDS011;5672;51.060;3.734;2022-08-30T03:46:14;7.63;;;6.47;;
11230;SDS011;5672;51.060;3.734;2022-08-30T03:48:40;8.97;;;6.53;;
11230;SDS011;5672;51.060;3.734;2022-08-30T03:51:07;8.03;;;6.37;;
11230;SDS011;5672;51.060;3.734;2022-08-30T03:53:33;9.53;;;6.30;;
11230;SDS011;5672;51.060;3.734;2022-08-30T03:55:59;9.43;;;6.60;;
11230;SDS011;5672;51.060;3.734;2022-08-30T03:58:26;9.07;;;7.50;;
11230;SDS011;5672;51.060;3.734;2022-08-30T04:00:52;15.10;;;7.53;;
11230;SDS011;5672;51.060;3.734;2022-08-30T04:03:18;10.87;;;7.00;;
11230;SDS011;5672;51.060;3.734;2022-08-30T04:05:49;9.00;;;7.83;;
11230;SDS011;5672;51.060;3.734;2022-08-30T04:08:15;7.73;;;6.97;;
11230;SDS011;5672;51.060;3.734;2022-08-30T04:10:41;9.20;;;7.40;;
11230;SDS011;5672;51.060;3.734;2022-08-30T04:13:08;9.40;;;7.37;;
11230;SDS011;5672;51.060;3.734;2022-08-30T04:15:34;14.93;;;7.60;;
11230;SDS011;5672;51.060;3.734;2022-08-30T04:18:00;12.10;;;7.27;;
11230;SDS011;5672;51.060;3.734;2022-08-30T04:20:26;10.17;;;7.13;;
11230;SDS011;5672;51.060;3.734;2022-08-30T04:22:52;9.20;;;7.33;;
11230;SDS011;5672;51.060;3.734;2022-08-30T04:25:18;7.93;;;7.13;;
11230;SDS011;5672;51.060;3.734;2022-08-30T04:27:44;9.97;;;7.47;;
11230;SDS011;5672;51.060;3.734;2022-08-30T04:30:10;8.03;;;6.83;;
11230;SDS011;5672;51.060;3.734;2022-08-30T04:32:36;8.83;;;7.03;;
11230;SDS011;5672;51.060;3.734;2022-08-30T04:35:03;11.40;;;7.57;;
11230;SDS011;5672;51.060;3.734;2022-08-30T04:37:29;8.70;;;6.83;;
11230;SDS011;5672;51.060;3.734;2022-08-30T04:39:56;11.43;;;7.00;;
11230;SDS011;5672;51.060;3.734;2022-08-30T04:42:24;10.23;;;7.10;;
11230;SDS011;5672;51.060;3.734;2022-08-30T04:44:52;10.13;;;6.83;;
11230;SDS011;5672;51.060;3.734;2022-08-30T04:47:18;8.57;;;6.57;;
11230;SDS011;5672;51.060;3.734;2022-08-30T04:49:44;9.13;;;6.67;;
11230;SDS011;5672;51.060;3.734;2022-08-30T04:52:10;11.10;;;7.43;;
11230;SDS011;5672;51.060;3.734;2022-08-30T04:54:36;9.30;;;6.90;;
11230;SDS011;5672;51.060;3.734;2022-08-30T04:57:02;10.90;;;7.10;;
11230;SDS011;5672;51.060;3.734;2022-08-30T04:59:29;11.77;;;7.73;;
11230;SDS011;5672;51.060;3.734;2022-08-30T05:01:55;7.83;;;6.57;;
11230;SDS011;5672;51.060;3.734;2022-08-30T05:04:21;11.60;;;7.23;;
11230;SDS011;5672;51.060;3.734;2022-08-30T05:06:47;7.40;;;6.70;;
11230;SDS011;5672;51.060;3.734;2022-08-30T05:09:14;13.50;;;7.43;;
11230;SDS011;5672;51.060;3.734;2022-08-30T05:11:40;8.73;;;7.57;;
11230;SDS011;5672;51.060;3.734;2022-08-30T05:14:07;12.10;;;7.50;;
11230;SDS011;5672;51.060;3.734;2022-08-30T05:16:34;9.43;;;7.40;;
11230;SDS011;5672;51.060;3.734;2022-08-30T05:19:00;10.40;;;7.10;;
11230;SDS011;5672;51.060;3.734;2022-08-30T05:21:26;9.57;;;7.33;;
11230;SDS011;5672;51.060;3.734;2022-08-30T05:23:54;11.40;;;7.00;;
11230;SDS011;5672;51.060;3.734;2022-08-30T05:26:21;11.90;;;8.17;;
11230;SDS011;5672;51.060;3.734;2022-08-30T05:28:47;10.73;;;8.27;;
11230;SDS011;5672;51.060;3.734;2022-08-30T05:31:18;11.00;;;7.90;;
11230;SDS011;5672;51.060;3.734;2022-08-30T05:33:44;9.53;;;7.97;;
11230;SDS011;5672;51.060;3.734;2022-08-30T05:36:11;13.73;;;7.90;;
11230;SDS011;5672;51.060;3.734;2022-08-30T05:38:37;12.70;;;8.20;;
11230;SDS011;5672;51.060;3.734;2022-08-30T05:41:03;9.97;;;7.97;;
11230;SDS011;5672;51.060;3.734;2022-08-30T05:43:30;11.10;;;7.63;;
11230;SDS011;5672;51.060;3.734;2022-08-30T05:45:59;9.00;;;7.23;;
11230;SDS011;5672;51.060;3.734;2022-08-30T05:48:26;11.60;;;7.63;;
11230;SDS011;5672;51.060;3.734;2022-08-30T05:51:02;8.37;;;7.37;;
11230;SDS011;5672;51.060;3.734;2022-08-30T05:53:29;8.97;;;8.00;;
11230;SDS011;5672;51.060;3.734;2022-08-30T05:55:55;10.03;;;8.20;;
11230;SDS011;5672;51.060;3.734;2022-08-30T05:58:21;12.70;;;8.40;;
11230;SDS011;5672;51.060;3.734;2022-08-30T06:00:47;8.67;;;7.80;;
11230;SDS011;5672;51.060;3.734;2022-08-30T06:03:13;8.17;;;6.73;;
11230;SDS011;5672;51.060;3.734;2022-08-30T06:05:39;8.90;;;7.23;;
11230;SDS011;5672;51.060;3.734;2022-08-30T06:08:05;9.13;;;7.63;;
11230;SDS011;5672;51.060;3.734;2022-08-30T06:10:31;13.00;;;8.33;;
11230;SDS011;5672;51.060;3.734;2022-08-30T06:12:57;8.67;;;7.83;;
11230;SDS011;5672;51.060;3.734;2022-08-30T06:15:23;9.03;;;8.13;;
11230;SDS011;5672;51.060;3.734;2022-08-30T06:17:49;9.50;;;8.50;;
11230;SDS011;5672;51.060;3.734;2022-08-30T06:20:15;11.40;;;8.70;;
11230;SDS011;5672;51.060;3.734;2022-08-30T06:22:44;11.73;;;8.93;;
11230;SDS011;5672;51.060;3.734;2022-08-30T06:25:10;10.93;;;8.13;;
11230;SDS011;5672;51.060;3.734;2022-08-30T06:27:36;10.47;;;8.20;;
11230;SDS011;5672;51.060;3.734;2022-08-30T06:30:02;8.97;;;8.07;;
11230;SDS011;5672;51.060;3.734;2022-08-30T06:32:32;10.23;;;8.80;;
11230;SDS011;5672;51.060;3.734;2022-08-30T06:34:58;11.53;;;8.33;;
11230;SDS011;5672;51.060;3.734;2022-08-30T06:37:24;9.80;;;8.83;;
11230;SDS011;5672;51.060;3.734;2022-08-30T06:39:50;10.83;;;9.20;;
11230;SDS011;5672;51.060;3.734;2022-08-30T06:42:16;13.23;;;9.13;;
11230;SDS011;5672;51.060;3.734;2022-08-30T06:44:42;12.03;;;8.33;;
11230;SDS011;5672;51.060;3.734;2022-08-30T06:47:09;10.67;;;8.43;;
11230;SDS011;5672;51.060;3.734;2022-08-30T06:49:35;10.00;;;9.00;;
11230;SDS011;5672;51.060;3.734;2022-08-30T06:52:01;10.23;;;8.97;;
11230;SDS011;5672;51.060;3.734;2022-08-30T06:54:27;14.07;;;9.50;;
11230;SDS011;5672;51.060;3.734;2022-08-30T06:56:53;10.20;;;8.97;;
11230;SDS011;5672;51.060;3.734;2022-08-30T06:59:19;14.47;;;9.27;;
11230;SDS011;5672;51.060;3.734;2022-08-30T07:01:45;11.90;;;8.43;;
11230;SDS011;5672;51.060;3.734;2022-08-30T07:04:12;10.70;;;8.80;;
11230;SDS011;5672;51.060;3.734;2022-08-30T07:06:38;11.83;;;9.07;;
11230;SDS011;5672;51.060;3.734;2022-08-30T07:09:05;10.43;;;8.93;;
11230;SDS011;5672;51.060;3.734;2022-08-30T07:11:35;9.93;;;8.93;;
11230;SDS011;5672;51.060;3.734;2022-08-30T07:14:01;11.63;;;9.07;;
11230;SDS011;5672;51.060;3.734;2022-08-30T07:16:28;10.87;;;9.03;;
11230;SDS011;5672;51.060;3.734;2022-08-30T07:18:54;14.40;;;10.00;;
11230;SDS011;5672;51.060;3.734;2022-08-30T07:23:49;10.57;;;9.20;;
11230;SDS011;5672;51.060;3.734;2022-08-30T07:26:16;10.80;;;9.70;;
11230;SDS011;5672;51.060;3.734;2022-08-30T07:28:43;10.10;;;9.10;;
11230;SDS011;5672;51.060;3.734;2022-08-30T07:31:10;10.03;;;9.13;;
11230;SDS011;5672;51.060;3.734;2022-08-30T07:33:36;13.10;;;9.53;;
11230;SDS011;5672;51.060;3.734;2022-08-30T07:36:04;11.23;;;10.00;;
11230;SDS011;5672;51.060;3.734;2022-08-30T07:38:31;11.60;;;10.37;;
11230;SDS011;5672;51.060;3.734;2022-08-30T07:40:57;11.60;;;9.90;;
11230;SDS011;5672;51.060;3.734;2022-08-30T07:43:25;12.17;;;9.93;;
11230;SDS011;5672;51.060;3.734;2022-08-30T07:45:51;9.97;;;8.97;;
11230;SDS011;5672;51.060;3.734;2022-08-30T07:48:17;10.07;;;9.10;;
11230;SDS011;5672;51.060;3.734;2022-08-30T07:50:43;10.90;;;9.90;;
11230;SDS011;5672;51.060;3.734;2022-08-30T07:53:10;10.40;;;9.30;;
11230;SDS011;5672;51.060;3.734;2022-08-30T07:55:36;11.80;;;10.00;;
11230;SDS011;5672;51.060;3.734;2022-08-30T07:58:02;11.60;;;9.60;;
11230;SDS011;5672;51.060;3.734;2022-08-30T08:00:28;9.77;;;8.77;;
11230;SDS011;5672;51.060;3.734;2022-08-30T08:02:54;10.57;;;9.47;;
11230;SDS011;5672;51.060;3.734;2022-08-30T08:05:20;10.97;;;9.80;;
11230;SDS011;5672;51.060;3.734;2022-08-30T08:07:46;10.27;;;9.27;;
11230;SDS011;5672;51.060;3.734;2022-08-30T08:10:12;11.27;;;9.43;;
11230;SDS011;5672;51.060;3.734;2022-08-30T08:12:39;11.10;;;9.87;;
11230;SDS011;5672;51.060;3.734;2022-08-30T08:15:06;10.23;;;9.23;;
11230;SDS011;5672;51.060;3.734;2022-08-30T08:17:32;12.57;;;9.47;;
11230;SDS011;5672;51.060;3.734;2022-08-30T08:19:58;10.90;;;9.77;;
11230;SDS011;5672;51.060;3.734;2022-08-30T08:22:24;11.83;;;9.80;;
11230;SDS011;5672;51.060;3.734;2022-08-30T08:24:51;14.23;;;8.67;;
11230;SDS011;5672;51.060;3.734;2022-08-30T08:27:17;10.40;;;8.67;;
11230;SDS011;5672;51.060;3.734;2022-08-30T08:29:43;9.67;;;8.40;;
11230;SDS011;5672;51.060;3.734;2022-08-30T08:32:09;10.77;;;8.87;;
11230;SDS011;5672;51.060;3.734;2022-08-30T08:34:35;12.17;;;9.20;;
11230;SDS011;5672;51.060;3.734;2022-08-30T08:37:02;10.07;;;9.07;;
11230;SDS011;5672;51.060;3.734;2022-08-30T08:39:28;12.70;;;9.27;;
11230;SDS011;5672;51.060;3.734;2022-08-30T08:41:58;9.47;;;8.53;;
11230;SDS011;5672;51.060;3.734;2022-08-30T08:47:10;12.47;;;8.40;;
11230;SDS011;5672;51.060;3.734;2022-08-30T08:49:38;11.57;;;7.70;;
11230;SDS011;5672;51.060;3.734;2022-08-30T08:52:05;9.53;;;8.03;;
11230;SDS011;5672;51.060;3.734;2022-08-30T08:54:56;11.53;;;7.90;;
11230;SDS011;5672;51.060;3.734;2022-08-30T08:57:23;12.43;;;7.63;;
11230;SDS011;5672;51.060;3.734;2022-08-30T08:59:49;9.63;;;7.30;;
11230;SDS011;5672;51.060;3.734;2022-08-30T09:02:22;10.93;;;7.63;;
11230;SDS011;5672;51.060;3.734;2022-08-30T09:04:49;8.10;;;7.20;;
11230;SDS011;5672;51.060;3.734;2022-08-30T09:07:23;10.47;;;6.90;;
11230;SDS011;5672;51.060;3.734;2022-08-30T09:09:49;8.87;;;7.60;;
11230;SDS011;5672;51.060;3.734;2022-08-30T09:12:15;7.70;;;6.80;;
11230;SDS011;5672;51.060;3.734;2022-08-30T09:14:50;8.20;;;6.90;;
11230;SDS011;5672;51.060;3.734;2022-08-30T09:17:17;10.47;;;7.17;;
11230;SDS011;5672;51.060;3.734;2022-08-30T09:19:45;8.63;;;6.90;;
11230;SDS011;5672;51.060;3.734;2022-08-30T09:22:16;8.80;;;7.27;;
11230;SDS011;5672;51.060;3.734;2022-08-30T09:24:47;9.57;;;6.43;;
11230;SDS011;5672;51.060;3.734;2022-08-30T09:27:18;6.63;;;6.03;;
11230;SDS011;5672;51.060;3.734;2022-08-30T09:29:49;9.03;;;7.50;;
11230;SDS011;5672;51.060;3.734;2022-08-30T09:32:22;7.10;;;6.40;;
11230;SDS011;5672;51.060;3.734;2022-08-30T09:34:48;6.83;;;6.20;;
11230;SDS011;5672;51.060;3.734;2022-08-30T09:37:25;12.90;;;6.70;;
11230;SDS011;5672;51.060;3.734;2022-08-30T09:39:52;13.53;;;7.83;;
11230;SDS011;5672;51.060;3.734;2022-08-30T09:42:28;10.43;;;7.53;;
11230;SDS011;5672;51.060;3.734;2022-08-30T09:44:55;14.00;;;7.23;;
11230;SDS011;5672;51.060;3.734;2022-08-30T09:47:34;8.77;;;6.37;;
11230;SDS011;5672;51.060;3.734;2022-08-30T09:50:03;10.10;;;6.93;;
11230;SDS011;5672;51.060;3.734;2022-08-30T10:00:51;9.00;;;5.93;;
11230;SDS011;5672;51.060;3.734;2022-08-30T10:11:01;6.93;;;5.87;;
11230;SDS011;5672;51.060;3.734;2022-08-30T10:21:17;6.07;;;5.50;;
11230;SDS011;5672;51.060;3.734;2022-08-30T10:23:56;8.57;;;5.93;;
11230;SDS011;5672;51.060;3.734;2022-08-30T10:26:30;6.30;;;5.70;;
11230;SDS011;5672;51.060;3.734;2022-08-30T10:28:59;13.00;;;6.37;;
11230;SDS011;5672;51.060;3.734;2022-08-30T10:33:55;6.80;;;5.80;;
11230;SDS011;5672;51.060;3.734;2022-08-30T10:36:30;7.23;;;5.20;;
11230;SDS011;5672;51.060;3.734;2022-08-30T10:38:56;5.73;;;5.30;;
11230;SDS011;5672;51.060;3.734;2022-08-30T10:49:27;8.70;;;6.07;;
11230;SDS011;5672;51.060;3.734;2022-08-30T10:51:57;14.73;;;7.17;;
11230;SDS011;5672;51.060;3.734;2022-08-30T10:54:28;8.67;;;6.23;;
11230;SDS011;5672;51.060;3.734;2022-08-30T10:56:56;11.80;;;6.00;;
11230;SDS011;5672;51.060;3.734;2022-08-30T10:59:22;8.20;;;6.07;;
11230;SDS011;5672;51.060;3.734;2022-08-30T11:11:58;9.33;;;6.07;;
11230;SDS011;5672;51.060;3.734;2022-08-30T11:14:26;7.13;;;6.00;;
11230;SDS011;5672;51.060;3.734;2022-08-30T11:16:54;6.30;;;4.80;;
11230;SDS011;5672;51.060;3.734;2022-08-30T11:21:50;4.83;;;4.43;;
11230;SDS011;5672;51.060;3.734;2022-08-30T11:24:21;5.70;;;4.93;;
11230;SDS011;5672;51.060;3.734;2022-08-30T11:42:09;6.33;;;4.47;;
11230;SDS011;5672;51.060;3.734;2022-08-30T11:44:35;5.47;;;4.23;;
11230;SDS011;5672;51.060;3.734;2022-08-30T11:47:02;7.07;;;4.20;;
11230;SDS011;5672;51.060;3.734;2022-08-30T11:49:51;5.83;;;4.40;;
11230;SDS011;5672;51.060;3.734;2022-08-30T11:54:50;6.17;;;4.70;;
11230;SDS011;5672;51.060;3.734;2022-08-30T12:00:11;7.13;;;4.00;;
11230;SDS011;5672;51.060;3.734;2022-08-30T12:03:00;6.27;;;3.50;;
11230;SDS011;5672;51.060;3.734;2022-08-30T12:08:10;10.57;;;4.87;;
11230;SDS011;5672;51.060;3.734;2022-08-30T12:10:54;6.60;;;4.03;;
11230;SDS011;5672;51.060;3.734;2022-08-30T12:21:02;5.33;;;3.33;;
11230;SDS011;5672;51.060;3.734;2022-08-30T12:26:19;10.80;;;4.13;;
11230;SDS011;5672;51.060;3.734;2022-08-30T12:31:44;9.03;;;4.27;;
11230;SDS011;5672;51.060;3.734;2022-08-30T12:34:18;5.27;;;3.90;;
11230;SDS011;5672;51.060;3.734;2022-08-30T12:36:50;6.63;;;3.83;;
11230;SDS011;5672;51.060;3.734;2022-08-30T12:41:42;4.23;;;3.83;;
11230;SDS011;5672;51.060;3.734;2022-08-30T12:44:30;4.87;;;4.10;;
11230;SDS011;5672;51.060;3.734;2022-08-30T12:46:57;11.90;;;3.90;;
11230;SDS011;5672;51.060;3.734;2022-08-30T12:49:26;5.80;;;3.90;;
11230;SDS011;5672;51.060;3.734;2022-08-30T12:51:52;4.50;;;2.90;;
11230;SDS011;5672;51.060;3.734;2022-08-30T12:54:20;7.13;;;3.50;;
11230;SDS011;5672;51.060;3.734;2022-08-30T12:56:54;6.10;;;3.57;;
11230;SDS011;5672;51.060;3.734;2022-08-30T12:59:37;8.47;;;3.80;;
11230;SDS011;5672;51.060;3.734;2022-08-30T13:02:05;7.90;;;4.00;;
11230;SDS011;5672;51.060;3.734;2022-08-30T13:04:32;8.63;;;3.97;;
11230;SDS011;5672;51.060;3.734;2022-08-30T13:06:59;8.10;;;3.43;;
11230;SDS011;5672;51.060;3.734;2022-08-30T13:09:32;5.93;;;3.50;;
11230;SDS011;5672;51.060;3.734;2022-08-30T13:11:59;7.10;;;3.30;;
11230;SDS011;5672;51.060;3.734;2022-08-30T13:15:07;4.27;;;2.80;;
11230;SDS011;5672;51.060;3.734;2022-08-30T13:17:23;4.00;;;3.40;;
11230;SDS011;5672;51.060;3.734;2022-08-30T13:19:56;4.43;;;2.67;;
11230;SDS011;5672;51.060;3.734;2022-08-30T13:24:55;4.80;;;2.60;;
11230;SDS011;5672;51.060;3.734;2022-08-30T13:27:21;5.50;;;3.33;;
11230;SDS011;5672;51.060;3.734;2022-08-30T13:29:47;5.37;;;2.80;;
11230;SDS011;5672;51.060;3.734;2022-08-30T13:32:13;4.70;;;3.07;;
11230;SDS011;5672;51.060;3.734;2022-08-30T13:34:40;7.43;;;3.40;;
11230;SDS011;5672;51.060;3.734;2022-08-30T13:37:06;5.20;;;3.13;;
11230;SDS011;5672;51.060;3.734;2022-08-30T13:39:34;4.47;;;3.20;;
11230;SDS011;5672;51.060;3.734;2022-08-30T13:42:00;7.23;;;2.80;;
11230;SDS011;5672;51.060;3.734;2022-08-30T13:44:26;8.17;;;2.97;;
11230;SDS011;5672;51.060;3.734;2022-08-30T13:46:53;5.93;;;3.20;;
11230;SDS011;5672;51.060;3.734;2022-08-30T13:49:24;5.70;;;2.70;;
11230;SDS011;5672;51.060;3.734;2022-08-30T13:51:50;5.70;;;2.90;;
11230;SDS011;5672;51.060;3.734;2022-08-30T13:54:18;6.60;;;2.63;;
11230;SDS011;5672;51.060;3.734;2022-08-30T13:56:46;3.90;;;2.80;;
11230;SDS011;5672;51.060;3.734;2022-08-30T13:59:12;5.70;;;2.73;;
11230;SDS011;5672;51.060;3.734;2022-08-30T14:01:38;2.70;;;2.10;;
11230;SDS011;5672;51.060;3.734;2022-08-30T14:04:05;7.27;;;3.00;;
11230;SDS011;5672;51.060;3.734;2022-08-30T14:06:31;5.63;;;2.87;;
11230;SDS011;5672;51.060;3.734;2022-08-30T14:08:57;5.93;;;2.87;;
11230;SDS011;5672;51.060;3.734;2022-08-30T14:11:23;3.53;;;3.13;;
11230;SDS011;5672;51.060;3.734;2022-08-30T14:13:49;8.57;;;2.97;;
11230;SDS011;5672;51.060;3.734;2022-08-30T14:16:15;6.20;;;3.37;;
11230;SDS011;5672;51.060;3.734;2022-08-30T14:18:41;3.23;;;2.63;;
11230;SDS011;5672;51.060;3.734;2022-08-30T14:21:07;6.40;;;2.53;;
11230;SDS011;5672;51.060;3.734;2022-08-30T14:23:33;2.87;;;2.37;;
11230;SDS011;5672;51.060;3.734;2022-08-30T14:25:59;3.90;;;2.70;;
11230;SDS011;5672;51.060;3.734;2022-08-30T14:28:26;2.93;;;2.47;;
11230;SDS011;5672;51.060;3.734;2022-08-30T14:30:54;4.37;;;2.90;;
11230;SDS011;5672;51.060;3.734;2022-08-30T14:33:20;6.93;;;3.07;;
11230;SDS011;5672;51.060;3.734;2022-08-30T14:35:46;4.60;;;2.57;;
11230;SDS011;5672;51.060;3.734;2022-08-30T14:38:12;4.40;;;2.40;;
11230;SDS011;5672;51.060;3.734;2022-08-30T14:40:38;5.53;;;2.90;;
11230;SDS011;5672;51.060;3.734;2022-08-30T14:43:04;3.27;;;2.63;;
11230;SDS011;5672;51.060;3.734;2022-08-30T14:45:31;6.03;;;3.70;;
11230;SDS011;5672;51.060;3.734;2022-08-30T14:47:57;5.93;;;2.43;;
11230;SDS011;5672;51.060;3.734;2022-08-30T14:50:24;3.73;;;2.60;;
11230;SDS011;5672;51.060;3.734;2022-08-30T14:52:50;3.73;;;2.40;;
11230;SDS011;5672;51.060;3.734;2022-08-30T14:55:16;6.70;;;2.50;;
11230;SDS011;5672;51.060;3.734;2022-08-30T14:57:42;4.30;;;2.63;;
11230;SDS011;5672;51.060;3.734;2022-08-30T15:00:10;7.63;;;2.63;;
11230;SDS011;5672;51.060;3.734;2022-08-30T15:02:36;3.73;;;2.27;;
11230;SDS011;5672;51.060;3.734;2022-08-30T15:05:03;4.70;;;2.63;;
11230;SDS011;5672;51.060;3.734;2022-08-30T15:07:29;7.17;;;2.87;;
11230;SDS011;5672;51.060;3.734;2022-08-30T15:09:55;4.77;;;2.53;;
11230;SDS011;5672;51.060;3.734;2022-08-30T15:12:21;3.67;;;2.20;;
11230;SDS011;5672;51.060;3.734;2022-08-30T15:14:47;4.93;;;2.70;;
11230;SDS011;5672;51.060;3.734;2022-08-30T15:17:13;6.73;;;2.47;;
11230;SDS011;5672;51.060;3.734;2022-08-30T15:19:41;5.13;;;2.43;;
11230;SDS011;5672;51.060;3.734;2022-08-30T15:22:08;3.17;;;2.87;;
11230;SDS011;5672;51.060;3.734;2022-08-30T15:24:34;3.27;;;2.30;;
11230;SDS011;5672;51.060;3.734;2022-08-30T15:27:01;5.37;;;2.50;;
11230;SDS011;5672;51.060;3.734;2022-08-30T15:29:27;3.63;;;2.47;;
11230;SDS011;5672;51.060;3.734;2022-08-30T15:31:53;10.37;;;3.03;;
11230;SDS011;5672;51.060;3.734;2022-08-30T15:34:20;3.27;;;2.23;;
11230;SDS011;5672;51.060;3.734;2022-08-30T15:36:47;8.97;;;2.73;;
11230;SDS011;5672;51.060;3.734;2022-08-30T15:39:13;10.10;;;3.37;;
11230;SDS011;5672;51.060;3.734;2022-08-30T15:41:40;7.50;;;3.23;;
11230;SDS011;5672;51.060;3.734;2022-08-30T15:44:07;7.93;;;2.70;;
11230;SDS011;5672;51.060;3.734;2022-08-30T15:46:34;10.23;;;3.80;;
11230;SDS011;5672;51.060;3.734;2022-08-30T15:49:05;10.43;;;2.77;;
11230;SDS011;5672;51.060;3.734;2022-08-30T15:51:32;8.77;;;2.30;;
11230;SDS011;5672;51.060;3.734;2022-08-30T15:53:59;6.83;;;2.90;;
11230;SDS011;5672;51.060;3.734;2022-08-30T15:56:27;5.87;;;3.57;;
11230;SDS011;5672;51.060;3.734;2022-08-30T15:58:53;46.77;;;14.70;;
11230;SDS011;5672;51.060;3.734;2022-08-30T16:01:19;9.60;;;3.63;;
11230;SDS011;5672;51.060;3.734;2022-08-30T16:03:45;4.83;;;2.90;;
11230;SDS011;5672;51.060;3.734;2022-08-30T16:06:15;7.23;;;2.83;;
11230;SDS011;5672;51.060;3.734;2022-08-30T16:08:41;11.63;;;3.20;;
11230;SDS011;5672;51.060;3.734;2022-08-30T16:11:08;6.83;;;3.10;;
11230;SDS011;5672;51.060;3.734;2022-08-30T16:13:34;6.00;;;2.50;;
11230;SDS011;5672;51.060;3.734;2022-08-30T16:16:01;6.90;;;2.67;;
11230;SDS011;5672;51.060;3.734;2022-08-30T16:18:28;4.73;;;2.40;;
11230;SDS011;5672;51.060;3.734;2022-08-30T16:21:05;6.53;;;2.33;;
11230;SDS011;5672;51.060;3.734;2022-08-30T16:23:32;6.03;;;2.43;;
11230;SDS011;5672;51.060;3.734;2022-08-30T16:25:58;8.67;;;2.10;;
11230;SDS011;5672;51.060;3.734;2022-08-30T16:28:24;11.83;;;2.90;;
11230;SDS011;5672;51.060;3.734;2022-08-30T16:30:51;7.57;;;2.30;;